Time;durP1;ratioP1;P1;durP2;ratioP2;P2;SDS_P1;SDS_P2;PMS_P1;PMS_P2;Temp;Humidity;BMP_temperature;BMP_pressure;BME280_temperature;BME280_humidity;BME280_pressure;Samples;Min_cycle;Max_cycle;Signal;HPM_P1;HPM_P2
2022/05/05 00:01:16;;;;;;;4.00;1.70;;;;;;;4.02;48.19;100782.55;1717563;82;21125;-70
2022/05/05 00:03:43;;;;;;;6.55;2.02;;;;;;;3.99;48.39;100787.33;1731000;82;21069;-71
2022/05/05 00:06:10;;;;;;;4.67;2.10;;;;;;;3.95;48.03;100785.14;1731055;82;21551;-71
2022/05/05 00:08:38;;;;;;;6.15;1.95;;;;;;;3.91;48.06;100788.64;1731102;82;21121;-71
2022/05/05 00:16:35;;;;;;;5.08;1.80;;;;;;;3.81;49.60;100793.83;1731158;82;21097;-71
2022/05/05 00:19:04;;;;;;;5.20;1.75;;;;;;;3.77;49.79;100795.55;1731273;82;21006;-70
2022/05/05 00:21:30;;;;;;;4.92;2.27;;;;;;;3.73;49.48;100801.65;1731268;82;21058;-71
2022/05/05 00:23:57;;;;;;;5.08;2.10;;;;;;;3.70;49.98;100799.02;1731123;82;21103;-70
2022/05/05 00:26:24;;;;;;;7.70;2.20;;;;;;;3.67;49.56;100797.72;1731298;82;21045;-70
2022/05/05 00:28:51;;;;;;;4.65;2.00;;;;;;;3.65;49.41;100805.96;1731054;82;21050;-71
2022/05/05 00:31:18;;;;;;;4.28;1.95;;;;;;;3.64;49.99;100815.95;1731143;82;21125;-70
2022/05/05 00:33:47;;;;;;;3.60;2.02;;;;;;;3.59;49.81;100810.73;1731053;82;21037;-71
2022/05/05 00:36:15;;;;;;;5.10;2.15;;;;;;;3.57;50.35;100816.37;1731176;82;21315;-70
2022/05/05 00:38:42;;;;;;;4.00;2.10;;;;;;;3.53;50.21;100818.08;1731229;82;21054;-70
2022/05/05 00:41:09;;;;;;;3.08;1.90;;;;;;;3.50;50.23;100815.48;1731308;82;21539;-70
2022/05/05 00:43:36;;;;;;;6.12;1.95;;;;;;;3.46;50.17;100813.73;1731016;82;21614;-70
2022/05/05 00:46:03;;;;;;;4.45;1.57;;;;;;;3.42;50.55;100819.78;1731054;82;21553;-70
2022/05/05 00:48:30;;;;;;;4.70;2.10;;;;;;;3.38;51.28;100821.06;1730925;82;21133;-70
2022/05/05 00:50:57;;;;;;;3.95;1.98;;;;;;;3.34;51.38;100822.37;1731218;82;21030;-71
2022/05/05 00:53:24;;;;;;;3.08;2.00;;;;;;;3.30;51.48;100815.84;1731370;82;21114;-70
2022/05/05 00:55:56;;;;;;;3.45;1.72;;;;;;;3.25;52.12;100824.08;1731390;82;21093;-71
2022/05/05 00:58:23;;;;;;;5.78;1.90;;;;;;;3.21;52.24;100822.31;1730773;82;21073;-70
2022/05/05 01:00:50;;;;;;;4.17;1.65;;;;;;;3.17;52.08;100824.02;1731179;82;21586;-71
2022/05/05 01:03:18;;;;;;;5.22;2.30;;;;;;;3.12;52.19;100824.00;1717636;82;21105;-70
2022/05/05 01:05:44;;;;;;;2.75;1.60;;;;;;;3.09;52.36;100830.95;1715249;83;21069;-70
2022/05/05 01:08:12;;;;;;;6.58;2.10;;;;;;;3.04;52.49;100843.07;1715050;83;21057;-69
2022/05/05 01:10:39;;;;;;;5.65;2.17;;;;;;;3.00;52.59;100839.56;1715248;83;21557;-71
2022/05/05 01:13:06;;;;;;;5.17;2.20;;;;;;;2.96;52.75;100847.34;1714954;83;21541;-70
2022/05/05 01:15:35;;;;;;;6.12;2.10;;;;;;;2.90;53.04;100846.46;1715183;83;21093;-70
2022/05/05 01:18:02;;;;;;;3.25;2.02;;;;;;;2.84;53.14;100846.85;1715294;83;21057;-69
2022/05/05 01:20:29;;;;;;;3.42;2.05;;;;;;;2.78;53.37;100843.77;1715260;83;21517;-71
2022/05/05 01:22:56;;;;;;;4.80;2.00;;;;;;;2.72;53.80;100849.81;1715100;83;21068;-71
2022/05/05 01:28:11;;;;;;;4.00;1.95;;;;;;;2.66;53.85;100854.09;1714939;83;21097;-69
2022/05/05 01:30:42;;;;;;;3.58;2.15;;;;;;;2.63;53.86;100860.16;1715302;83;21597;-70
2022/05/05 01:33:13;;;;;;;4.87;2.25;;;;;;;2.59;54.19;100856.22;1742124;82;21065;-72
2022/05/05 01:35:40;;;;;;;4.05;1.80;;;;;;;2.54;54.24;100861.82;1745179;81;21076;-70
2022/05/05 01:38:09;;;;;;;5.15;2.15;;;;;;;2.49;55.40;100859.19;1744739;82;21162;-69
2022/05/05 01:40:36;;;;;;;6.37;1.95;;;;;;;2.45;55.39;100863.91;1745123;82;21005;-70
2022/05/05 01:43:04;;;;;;;8.70;2.05;;;;;;;2.38;55.53;100864.73;1744754;82;21101;-71
2022/05/05 01:45:31;;;;;;;4.40;2.20;;;;;;;2.30;55.79;100862.05;1745014;82;21097;-70
2022/05/05 01:47:58;;;;;;;5.15;2.33;;;;;;;2.25;55.83;100862.00;1745021;82;21518;-70
2022/05/05 01:50:25;;;;;;;5.70;2.30;;;;;;;2.18;56.05;100863.25;1745132;82;21263;-70
2022/05/05 01:52:53;;;;;;;6.08;3.00;;;;;;;2.13;56.46;100866.23;1724201;82;21065;-72
2022/05/05 01:55:21;;;;;;;6.15;2.35;;;;;;;2.07;56.73;100865.73;1724090;82;21041;-71
2022/05/05 01:57:49;;;;;;;6.85;2.20;;;;;;;2.01;57.01;100864.41;1745085;82;21042;-70
2022/05/05 02:00:17;;;;;;;4.90;2.47;;;;;;;1.97;57.62;100868.68;1745102;82;21597;-70
2022/05/05 02:02:47;;;;;;;5.05;1.87;;;;;;;1.93;58.05;100879.02;1752422;81;21140;-71
2022/05/05 02:05:14;;;;;;;6.22;2.37;;;;;;;1.86;58.31;100871.19;1761260;81;21038;-69
2022/05/05 02:07:41;;;;;;;7.28;2.40;;;;;;;1.83;58.10;100872.88;1761423;81;21042;-69
2022/05/05 02:10:14;;;;;;;9.80;2.58;;;;;;;1.80;58.10;100881.51;1761617;81;21097;-70
2022/05/05 02:12:40;;;;;;;7.00;2.70;;;;;;;1.79;58.14;100882.34;1761703;81;21578;-70
2022/05/05 02:15:11;;;;;;;6.03;2.98;;;;;;;1.79;58.55;100887.53;1761295;81;21266;-72
2022/05/05 02:17:40;;;;;;;3.02;1.85;;;;;;;1.79;58.55;100887.53;1761908;81;21041;-71
2022/05/05 02:20:09;;;;;;;5.20;2.52;;;;;;;1.81;58.44;100888.43;1761162;81;21637;-70
2022/05/05 02:22:35;;;;;;;9.55;2.17;;;;;;;1.84;59.00;100896.68;1761595;81;21054;-70
2022/05/05 02:25:02;;;;;;;6.28;2.67;;;;;;;1.84;58.85;100900.58;1761435;81;21015;-69
2022/05/05 02:27:29;;;;;;;4.83;2.02;;;;;;;1.84;58.85;100900.58;1761333;81;21270;-69
2022/05/05 02:29:56;;;;;;;9.20;2.87;;;;;;;1.85;58.67;100904.50;1761228;81;21109;-71
2022/05/05 02:32:22;;;;;;;6.62;2.70;;;;;;;1.84;59.04;100905.37;1761431;81;21086;-71
2022/05/05 02:34:49;;;;;;;6.22;2.77;;;;;;;1.84;59.04;100905.37;1761259;81;21082;-70
2022/05/05 02:40:01;;;;;;;6.42;2.40;;;;;;;1.85;59.00;100917.48;1761328;81;21365;-70
2022/05/05 02:42:27;;;;;;;6.15;2.70;;;;;;;1.86;58.93;100921.84;1761180;81;21591;-70
2022/05/05 02:44:54;;;;;;;4.60;2.85;;;;;;;1.87;59.18;100926.17;1761160;81;21061;-69
2022/05/05 02:47:21;;;;;;;7.47;2.85;;;;;;;1.89;59.00;100927.06;1761400;81;21105;-71
2022/05/05 02:49:47;;;;;;;7.95;2.98;;;;;;;1.89;59.26;100923.16;1761471;81;21109;-70
2022/05/05 02:52:14;;;;;;;7.62;2.67;;;;;;;1.91;59.60;100926.19;1761368;81;21519;-70
2022/05/05 02:54:47;;;;;;;7.53;3.10;;;;;;;1.93;59.47;100932.28;1761336;81;21570;-68
2022/05/05 02:57:14;;;;;;;7.05;2.87;;;;;;;1.95;59.34;100934.47;1761404;81;21057;-70
2022/05/05 02:59:42;;;;;;;5.15;2.80;;;;;;;2.00;59.57;100939.28;1761473;81;21050;-70
2022/05/05 03:02:09;;;;;;;7.35;3.20;;;;;;;2.00;59.57;100939.28;1760285;81;21010;-71
2022/05/05 03:04:35;;;;;;;12.28;3.17;;;;;;;2.04;59.50;100941.06;1745046;82;21120;-71
2022/05/05 03:07:03;;;;;;;4.78;2.80;;;;;;;2.10;59.65;100938.55;1745166;82;21089;-72
2022/05/05 03:09:29;;;;;;;10.00;3.17;;;;;;;2.18;59.57;100944.67;1744814;80;21037;-71
2022/05/05 03:11:56;;;;;;;8.43;3.00;;;;;;;2.28;59.77;100945.23;1745119;82;21045;-70
2022/05/05 03:14:23;;;;;;;6.70;3.27;;;;;;;2.43;59.35;100941.02;1744791;80;21052;-70
2022/05/05 03:16:50;;;;;;;6.83;3.10;;;;;;;2.59;58.77;100948.09;1745136;82;21486;-71
2022/05/05 03:19:16;;;;;;;5.90;3.08;;;;;;;2.80;58.32;100947.84;1744841;82;21085;-71
2022/05/05 03:21:43;;;;;;;6.28;2.95;;;;;;;3.18;57.52;100951.16;1745264;82;21052;-73
2022/05/05 03:24:10;;;;;;;8.65;3.42;;;;;;;3.79;56.17;100948.84;1745096;82;21081;-70
2022/05/05 03:26:39;;;;;;;7.12;2.62;;;;;;;4.53;54.64;100948.61;1745194;82;20994;-70
2022/05/05 03:29:05;;;;;;;9.35;3.08;;;;;;;5.16;52.47;100952.92;1745124;82;21219;-70
2022/05/05 03:31:32;;;;;;;6.33;2.77;;;;;;;5.67;50.14;100947.12;1745047;82;21010;-70
2022/05/05 03:33:59;;;;;;;5.35;2.60;;;;;;;6.08;49.06;100942.17;1744660;82;21538;-71
2022/05/05 03:36:26;;;;;;;5.90;2.87;;;;;;;6.54;47.67;100951.48;1744808;80;21089;-71
2022/05/05 03:38:54;;;;;;;6.87;2.90;;;;;;;6.88;46.69;100955.56;1745026;82;21072;-71
2022/05/05 03:41:21;;;;;;;6.22;2.72;;;;;;;7.25;46.15;100956.52;1744916;82;21237;-72
2022/05/05 03:43:48;;;;;;;6.05;2.85;;;;;;;7.62;44.68;100957.43;1744995;82;21038;-71
2022/05/05 03:46:14;;;;;;;8.15;2.60;;;;;;;7.96;44.08;100957.03;1745148;82;21054;-72
2022/05/05 03:48:42;;;;;;;7.58;3.40;;;;;;;8.33;43.96;100968.33;1745034;82;21120;-71
2022/05/05 03:51:09;;;;;;;5.10;2.70;;;;;;;8.65;41.59;100969.61;1745143;82;21041;-70
2022/05/05 03:53:36;;;;;;;9.33;2.60;;;;;;;8.76;40.97;100969.86;1745430;82;21231;-71
2022/05/05 03:56:04;;;;;;;7.78;2.85;;;;;;;8.92;41.00;100974.41;1723996;82;21050;-72
2022/05/05 03:58:32;;;;;;;6.10;2.60;;;;;;;9.08;41.06;100979.42;1744781;82;21566;-71
2022/05/05 04:00:58;;;;;;;4.95;2.67;;;;;;;9.30;39.70;100979.47;1744970;82;21045;-71
2022/05/05 04:03:30;;;;;;;6.25;2.50;;;;;;;9.31;39.45;100975.06;1745806;80;21061;-72
2022/05/05 04:06:03;;;;;;;4.72;2.47;;;;;;;9.45;39.50;100987.08;1747660;82;21295;-70
2022/05/05 04:08:30;;;;;;;7.15;2.60;;;;;;;9.61;38.87;100986.77;1747589;82;21077;-72
2022/05/05 04:10:57;;;;;;;4.15;2.58;;;;;;;9.85;37.80;100981.03;1747685;82;21040;-72
2022/05/05 04:13:28;;;;;;;6.03;2.67;;;;;;;10.13;37.77;100979.59;1747679;82;21010;-71
2022/05/05 04:15:54;;;;;;;5.47;2.33;;;;;;;10.36;37.04;100977.80;1747914;82;21058;-71
2022/05/05 04:18:21;;;;;;;4.75;2.45;;;;;;;10.46;36.89;100983.25;1747681;82;21382;-71
2022/05/05 04:20:48;;;;;;;6.45;2.30;;;;;;;10.63;36.59;100978.48;1747537;82;22237;-71
2022/05/05 04:23:14;;;;;;;4.20;2.08;;;;;;;10.87;36.02;100993.27;1747713;82;21096;-71
2022/05/05 04:25:41;;;;;;;5.60;2.25;;;;;;;10.99;35.41;100990.32;1747646;82;21010;-71
2022/05/05 04:28:09;;;;;;;4.92;2.70;;;;;;;11.12;35.83;100998.34;1747654;81;21026;-71
2022/05/05 04:30:36;;;;;;;4.78;2.72;;;;;;;11.27;35.31;100991.83;1747623;82;21836;-70
2022/05/05 04:33:04;;;;;;;7.92;2.30;;;;;;;11.48;35.24;100996.98;1747642;82;21041;-71
2022/05/05 04:35:31;;;;;;;5.90;2.40;;;;;;;11.68;34.55;100989.81;1747630;82;21033;-72
2022/05/05 04:37:58;;;;;;;6.80;2.70;;;;;;;11.83;34.23;100995.13;1747821;82;21033;-71
2022/05/05 04:40:24;;;;;;;5.10;2.45;;;;;;;11.90;33.78;100996.72;1747789;82;21049;-70
2022/05/05 04:42:52;;;;;;;5.33;2.60;;;;;;;11.94;33.85;100998.37;1747769;82;21550;-70
2022/05/05 04:45:19;;;;;;;6.87;2.60;;;;;;;12.12;33.49;100997.41;1747658;82;21502;-71
2022/05/05 04:47:46;;;;;;;5.12;2.37;;;;;;;12.25;33.40;100997.45;1747701;82;21089;-70
2022/05/05 04:50:12;;;;;;;4.35;1.92;;;;;;;12.48;33.42;101000.71;1747824;82;21551;-71
2022/05/05 04:52:40;;;;;;;10.28;2.65;;;;;;;12.67;33.18;101003.63;1747817;82;20970;-69
2022/05/05 04:55:08;;;;;;;7.87;2.42;;;;;;;12.87;32.53;101000.83;1747803;82;21238;-71
2022/05/05 04:57:36;;;;;;;5.90;2.55;;;;;;;13.02;32.06;101009.55;1747582;82;20979;-71
2022/05/05 05:00:05;;;;;;;3.60;2.27;;;;;;;13.17;32.18;101011.69;1747538;82;21033;-70
2022/05/05 05:02:31;;;;;;;8.48;2.60;;;;;;;13.39;32.10;101011.88;1747581;82;21025;-71
2022/05/05 05:04:58;;;;;;;3.92;2.35;;;;;;;13.51;31.47;101021.16;1744882;81;21170;-71
2022/05/05 05:07:25;;;;;;;4.55;2.27;;;;;;;13.59;31.60;101012.94;1744988;82;21131;-74
2022/05/05 05:09:52;;;;;;;7.67;2.58;;;;;;;13.82;31.40;101012.11;1744846;82;21057;-72
2022/05/05 05:12:19;;;;;;;4.97;2.70;;;;;;;13.96;30.88;101015.11;1744776;82;21129;-72
2022/05/05 05:14:48;;;;;;;4.97;2.27;;;;;;;14.01;30.79;101006.56;1744974;82;21085;-71
2022/05/05 05:17:16;;;;;;;7.40;2.72;;;;;;;14.19;30.55;101012.06;1744860;82;21042;-70
2022/05/05 05:19:43;;;;;;;10.90;4.35;;;;;;;14.24;30.53;101014.08;1744510;82;21620;-71
2022/05/05 05:22:10;;;;;;;5.08;2.33;;;;;;;14.36;30.22;101010.98;1745259;82;21069;-71
2022/05/05 05:24:37;;;;;;;5.92;2.22;;;;;;;14.51;29.64;101019.25;1745132;82;21467;-71
2022/05/05 05:27:06;;;;;;;4.17;2.20;;;;;;;14.59;29.27;101018.53;1744834;82;21049;-71
2022/05/05 05:29:32;;;;;;;4.17;2.00;;;;;;;14.62;29.52;101014.42;1745065;82;21062;-72
2022/05/05 05:31:59;;;;;;;3.95;2.15;;;;;;;14.61;29.33;101021.52;1745101;80;21230;-71
2022/05/05 05:34:25;;;;;;;6.40;2.20;;;;;;;14.67;29.20;101023.05;1744590;82;21026;-72
2022/05/05 05:36:52;;;;;;;20.88;2.30;;;;;;;14.64;29.39;101025.83;1745000;80;21025;-72
2022/05/05 05:39:18;;;;;;;4.90;2.20;;;;;;;14.80;29.40;101026.08;1744992;82;21634;-69
2022/05/05 05:41:45;;;;;;;5.42;2.00;;;;;;;15.03;28.94;101025.14;1744780;82;21062;-72
2022/05/05 05:44:12;;;;;;;4.12;1.60;;;;;;;15.24;28.21;101021.59;1723716;82;21304;-72
2022/05/05 05:46:40;;;;;;;3.92;1.80;;;;;;;15.41;28.14;101026.63;1744983;82;21066;-72
2022/05/05 05:49:06;;;;;;;5.10;2.00;;;;;;;15.59;28.21;101031.15;1744838;82;21015;-71
2022/05/05 05:51:34;;;;;;;3.65;1.90;;;;;;;15.75;27.70;101027.86;1744935;82;21042;-72
2022/05/05 05:54:00;;;;;;;4.17;2.00;;;;;;;15.86;27.44;101029.11;1745176;82;21026;-71
2022/05/05 05:56:27;;;;;;;9.75;1.70;;;;;;;15.95;27.23;101033.16;1744898;82;21791;-72
2022/05/05 05:58:54;;;;;;;11.93;2.02;;;;;;;15.87;26.91;101032.63;1744724;82;21097;-72
2022/05/05 06:03:53;;;;;;;6.45;1.98;;;;;;;15.71;27.67;101035.09;1744861;82;21064;-70
2022/05/05 06:03:56;;;;;;;3.45;1.60;;;;;;;15.74;27.63;101040.29;1747404;81;21053;-71
2022/05/05 06:06:25;;;;;;;3.47;1.90;;;;;;;15.75;27.92;101038.48;1761323;81;21101;-71
2022/05/05 06:08:52;;;;;;;5.20;2.08;;;;;;;15.76;27.87;101032.23;1761264;81;21199;-71
2022/05/05 06:11:21;;;;;;;8.15;1.80;;;;;;;15.83;27.88;101036.38;1761223;81;22144;-72
2022/05/05 06:13:49;;;;;;;6.80;1.80;;;;;;;15.92;27.67;101038.62;1761339;81;21015;-71
2022/05/05 06:16:17;;;;;;;4.95;1.72;;;;;;;16.05;27.09;101038.44;1761632;81;21070;-70
2022/05/05 06:18:45;;;;;;;6.53;2.60;;;;;;;16.25;26.94;101030.03;1761328;81;22183;-72
2022/05/05 06:21:12;;;;;;;6.83;2.17;;;;;;;16.49;26.67;101026.67;1761258;81;21574;-70
2022/05/05 06:23:41;;;;;;;2.62;1.40;;;;;;;16.52;26.88;101032.73;1761564;81;21049;-71
2022/05/05 06:26:07;;;;;;;7.33;2.00;;;;;;;16.68;26.36;101030.20;1761496;81;21143;-72
2022/05/05 06:28:34;;;;;;;4.42;1.98;;;;;;;16.69;26.43;101036.38;1761627;81;21031;-72
2022/05/05 06:31:00;;;;;;;2.95;1.70;;;;;;;16.76;26.36;101038.66;1760763;81;20998;-70
2022/05/05 06:33:29;;;;;;;2.52;1.65;;;;;;;17.08;26.47;101040.72;1731346;82;21209;-71
2022/05/05 06:35:55;;;;;;;7.33;1.95;;;;;;;17.28;25.07;101035.27;1731348;82;21170;-72
2022/05/05 06:38:22;;;;;;;18.05;2.30;;;;;;;17.21;25.46;101037.84;1731083;82;21050;-74
2022/05/05 06:40:49;;;;;;;5.42;1.50;;;;;;;16.84;25.28;101041.00;1731650;82;21061;-72
2022/05/05 06:43:16;;;;;;;5.72;1.65;;;;;;;16.71;24.94;101040.68;1731236;82;21530;-70
2022/05/05 06:45:42;;;;;;;5.03;1.80;;;;;;;16.90;25.38;101042.00;1705991;82;21256;-73
2022/05/05 06:48:09;;;;;;;6.72;1.50;;;;;;;17.30;24.76;101041.38;1731098;82;21022;-70
2022/05/05 06:50:37;;;;;;;5.20;1.70;;;;;;;17.56;24.50;101052.48;1731273;82;21038;-71
2022/05/05 06:53:04;;;;;;;2.25;1.45;;;;;;;17.75;24.18;101053.24;1731256;82;21035;-73
2022/05/05 06:55:31;;;;;;;4.22;1.60;;;;;;;17.93;21.83;101048.79;1731219;82;21033;-73
2022/05/05 06:57:58;;;;;;;2.55;1.67;;;;;;;17.93;22.92;101040.80;1731367;82;21120;-71
2022/05/05 07:01:51;;;;;;;6.33;1.62;;;;;;;18.14;22.79;101044.11;1730979;82;21015;-72
2022/05/05 07:02:53;;;;;;;8.73;1.47;;;;;;;18.36;21.81;101050.48;1727682;82;21046;-72
2022/05/05 07:05:29;;;;;;;8.58;1.60;;;;;;;17.94;21.02;101053.64;1718025;81;21068;-72
2022/05/05 07:07:56;;;;;;;3.52;1.80;;;;;;;17.37;21.42;101058.76;1715801;83;21084;-71
2022/05/05 07:13:09;;;;;;;3.70;1.60;;;;;;;17.08;21.71;101058.88;1715327;83;21538;-70
2022/05/05 07:15:37;;;;;;;1.92;1.35;;;;;;;17.28;22.31;101053.89;1715347;83;21049;-72
2022/05/05 07:18:05;;;;;;;3.95;1.57;;;;;;;17.72;21.07;101060.08;1715242;81;21021;-71
2022/05/05 07:20:31;;;;;;;2.08;1.40;;;;;;;17.91;20.91;101057.81;1715356;83;21057;-72
2022/05/05 07:22:58;;;;;;;11.63;1.75;;;;;;;18.02;21.10;101060.77;1715309;83;21161;-72
2022/05/05 07:25:25;;;;;;;2.30;1.50;;;;;;;18.18;21.11;101063.48;1715349;83;21041;-72
2022/05/05 07:27:52;;;;;;;3.65;1.82;;;;;;;18.21;20.77;101065.97;1715634;83;21559;-71
2022/05/05 07:30:19;;;;;;;2.90;1.47;;;;;;;18.09;20.96;101066.64;1715330;81;21096;-73
2022/05/05 07:32:48;;;;;;;2.05;1.10;;;;;;;17.93;21.17;101063.92;1715571;83;21581;-72
2022/05/05 07:35:14;;;;;;;3.42;1.55;;;;;;;17.82;21.14;101066.66;1715249;83;21557;-71
2022/05/05 07:37:42;;;;;;;4.10;1.90;;;;;;;17.89;21.85;101065.02;1715308;83;21101;-70
2022/05/05 07:40:13;;;;;;;4.45;1.80;;;;;;;18.14;21.40;101066.77;1715491;83;21146;-73
2022/05/05 07:42:42;;;;;;;13.20;2.30;;;;;;;18.24;21.12;101065.34;1715343;83;21014;-72
2022/05/05 07:45:10;;;;;;;4.92;1.40;;;;;;;18.39;20.56;101068.97;1715870;83;21578;-71
2022/05/05 07:47:38;;;;;;;2.62;1.50;;;;;;;17.95;20.90;101066.04;1715320;81;21675;-73
2022/05/05 07:50:08;;;;;;;2.55;1.40;;;;;;;17.53;21.33;101075.27;1715585;83;21034;-72
2022/05/05 07:52:34;;;;;;;3.72;1.50;;;;;;;17.40;21.99;101062.58;1715547;83;21032;-72
2022/05/05 07:55:01;;;;;;;6.28;2.10;;;;;;;17.56;21.20;101063.14;1715410;83;21100;-71
2022/05/05 07:57:28;;;;;;;2.10;1.32;;;;;;;17.80;21.59;101068.51;1715460;81;21109;-73
2022/05/05 07:59:55;;;;;;;3.12;1.67;;;;;;;18.27;21.21;101048.76;1715415;83;21137;-71
2022/05/05 08:02:21;;;;;;;4.33;1.60;;;;;;;18.43;21.48;101065.67;1715187;83;21017;-70
2022/05/05 08:04:48;;;;;;;4.70;1.52;;;;;;;18.50;21.15;101056.38;1723302;82;21077;-72
2022/05/05 08:07:14;;;;;;;6.62;1.55;;;;;;;18.51;20.56;101066.09;1732957;82;21109;-71
2022/05/05 08:09:41;;;;;;;3.75;1.80;;;;;;;18.23;20.89;101062.27;1733229;82;21061;-72
2022/05/05 08:12:10;;;;;;;4.05;1.85;;;;;;;18.19;21.55;101050.04;1733439;82;21215;-72
2022/05/05 08:14:36;;;;;;;5.75;1.42;;;;;;;18.44;21.43;101048.71;1733550;82;21516;-71
2022/05/05 08:17:03;;;;;;;6.00;1.67;;;;;;;18.34;20.53;101063.51;1733239;82;21479;-71
2022/05/05 08:19:30;;;;;;;4.83;1.47;;;;;;;17.79;20.91;101048.15;1733079;82;21101;-73
2022/05/05 08:21:57;;;;;;;3.30;1.75;;;;;;;17.37;21.23;101061.42;1733281;82;21073;-71
2022/05/05 08:29:55;;;;;;;8.25;1.90;;;;;;;17.84;21.86;101057.27;1733333;82;21112;-72
2022/05/05 08:32:23;;;;;;;3.35;1.62;;;;;;;18.13;20.69;101062.39;1733031;82;21066;-71
2022/05/05 08:34:49;;;;;;;4.05;1.90;;;;;;;18.35;20.98;101061.22;1733096;82;21065;-72
2022/05/05 08:37:16;;;;;;;4.58;1.55;;;;;;;18.76;20.11;101062.92;1733083;82;21820;-72
2022/05/05 08:39:44;;;;;;;4.12;1.47;;;;;;;19.03;19.94;101051.18;1733074;82;21054;-72
2022/05/05 08:42:11;;;;;;;3.15;1.60;;;;;;;19.37;19.44;101045.20;1733143;82;21058;-72
2022/05/05 08:44:39;;;;;;;5.72;1.60;;;;;;;19.50;19.63;101045.32;1732899;82;22514;-71
2022/05/05 08:47:09;;;;;;;18.45;6.60;;;;;;;19.30;19.46;101043.83;1733441;82;21519;-72
2022/05/05 08:49:38;;;;;;;4.58;2.05;;;;;;;18.85;19.82;101041.56;1733140;82;21762;-70
2022/05/05 08:52:08;;;;;;;9.88;2.52;;;;;;;18.63;19.79;101034.75;1732818;82;21567;-73
2022/05/05 08:54:35;;;;;;;17.60;7.22;;;;;;;18.18;20.49;101044.34;1733254;81;21092;-72
2022/05/05 08:57:05;;;;;;;5.17;2.75;;;;;;;17.92;21.49;101044.86;1734863;82;21612;-72
2022/05/05 08:59:33;;;;;;;6.22;1.82;;;;;;;18.20;20.81;101049.12;1735842;82;21050;-71
2022/05/05 09:01:59;;;;;;;2.22;1.50;;;;;;;18.47;20.69;101045.86;1760510;81;21136;-71
2022/05/05 09:04:26;;;;;;;6.72;1.72;;;;;;;18.73;20.53;101044.42;1717496;83;21083;-71
2022/05/05 09:06:53;;;;;;;5.62;1.62;;;;;;;19.13;20.77;101033.29;1693918;84;21009;-72
2022/05/05 09:09:34;;;;;;;3.75;1.40;;;;;;;19.39;19.58;101043.28;1705397;84;21026;-72
2022/05/05 09:12:13;;;;;;;5.85;1.98;;;;;;;19.33;18.83;101046.34;1706370;84;21070;-71
2022/05/05 09:14:53;;;;;;;5.72;1.40;;;;;;;19.21;18.80;101047.03;1705955;84;21610;-71
2022/05/05 09:17:21;;;;;;;2.65;1.37;;;;;;;18.95;19.42;101048.08;1705005;84;21542;-72
2022/05/05 09:19:51;;;;;;;3.02;1.32;;;;;;;18.62;19.54;101047.69;1704925;84;21071;-71
2022/05/05 09:22:21;;;;;;;2.20;1.30;;;;;;;18.34;19.67;101060.84;1703558;84;21113;-72
2022/05/05 09:24:51;;;;;;;4.30;1.85;;;;;;;18.24;19.95;101052.02;1702879;84;21624;-73
2022/05/05 09:27:33;;;;;;;7.65;2.40;;;;;;;18.45;20.21;101047.78;1703639;84;21098;-72
2022/05/05 09:30:10;;;;;;;2.95;1.50;;;;;;;18.70;20.40;101046.39;1703476;84;21033;-74
2022/05/05 09:32:45;;;;;;;1.65;1.12;;;;;;;18.83;19.93;101046.13;1682916;84;21226;-71
2022/05/05 09:35:16;;;;;;;2.50;1.35;;;;;;;18.65;20.10;101042.65;1690956;84;21039;-72
2022/05/05 09:37:46;;;;;;;13.48;2.85;;;;;;;18.62;20.46;101043.69;1688161;85;21082;-74
2022/05/05 09:40:17;;;;;;;14.60;2.02;;;;;;;18.59;20.17;101031.86;1711800;83;21263;-71
2022/05/05 09:42:47;;;;;;;12.13;2.90;;;;;;;18.42;20.90;101027.93;1711744;83;21056;-72
2022/05/05 09:45:20;;;;;;;4.25;1.55;;;;;;;18.43;20.57;101032.34;1711709;83;21139;-72
2022/05/05 09:47:53;;;;;;;19.50;12.98;;;;;;;18.57;19.71;101032.42;1712410;83;21131;-73
2022/05/05 09:50:22;;;;;;;23.65;10.35;;;;;;;18.77;20.02;101029.11;1711997;83;21047;-72
2022/05/05 09:58:26;;;;;;;2.60;1.57;;;;;;;19.03;19.38;101043.66;1711817;83;21075;-73
2022/05/05 10:01:04;;;;;;;3.25;1.45;;;;;;;18.87;18.82;101041.00;1711852;83;21016;-71
2022/05/05 10:06:31;;;;;;;6.78;1.85;;;;;;;19.03;19.06;101037.83;1697148;83;21790;-71
2022/05/05 10:09:12;;;;;;;2.62;1.40;;;;;;;19.45;19.08;101037.58;1694096;84;21101;-74
2022/05/05 10:11:40;;;;;;;2.22;1.70;;;;;;;19.45;18.30;101045.59;1694114;84;21036;-71
2022/05/05 10:14:09;;;;;;;2.65;1.35;;;;;;;19.39;18.43;101039.75;1693993;84;21063;-71
2022/05/05 10:19:22;;;;;;;3.37;1.42;;;;;;;19.46;18.11;101030.42;1796614;79;22740;-71
2022/05/05 10:22:03;;;;;;;6.72;1.57;;;;;;;19.07;18.23;101035.38;1756385;81;21733;-71
2022/05/05 10:24:34;;;;;;;2.90;1.50;;;;;;;18.81;19.14;101034.67;1756445;81;21704;-72
2022/05/05 10:27:03;;;;;;;2.50;1.47;;;;;;;18.58;19.82;101038.13;1756588;81;21008;-73
2022/05/05 10:29:36;;;;;;;3.42;1.27;;;;;;;18.29;19.25;101032.21;1756735;81;21077;-71
2022/05/05 10:32:21;;;;;;;5.47;1.47;;;;;;;18.16;19.70;101034.23;1756504;81;21491;-72
2022/05/05 10:35:07;;;;;;;5.08;1.30;;;;;;;18.16;19.86;101030.70;1756459;81;21574;-72
2022/05/05 10:37:37;;;;;;;4.83;1.40;;;;;;;18.34;19.53;101026.18;1756614;81;21223;-72
2022/05/05 10:40:07;;;;;;;5.17;1.67;;;;;;;18.19;20.14;101028.72;1756690;81;21003;-72
2022/05/05 10:42:45;;;;;;;2.80;1.70;;;;;;;18.37;20.03;101030.00;1756452;81;21027;-72
2022/05/05 10:45:27;;;;;;;6.10;2.98;;;;;;;18.57;19.07;101020.41;1755343;81;21063;-72
2022/05/05 10:48:06;;;;;;;6.08;1.50;;;;;;;18.95;18.90;101016.05;1756736;81;21022;-71
2022/05/05 10:50:43;;;;;;;3.95;1.60;;;;;;;19.50;18.58;101015.45;1754495;81;21858;-72
2022/05/05 10:53:07;;;;;;;2.15;1.20;;;;;;;19.89;18.61;101012.66;1743680;81;21035;-71
2022/05/05 10:55:45;;;;;;;2.85;1.45;;;;;;;20.20;18.67;101016.11;1726298;83;21027;-72
2022/05/05 10:58:14;;;;;;;2.40;1.50;;;;;;;20.53;17.78;101011.74;1725940;83;21097;-73
2022/05/05 11:00:42;;;;;;;4.25;1.35;;;;;;;20.82;18.66;101012.16;1723740;83;21265;-73
2022/05/05 11:03:13;;;;;;;2.08;1.20;;;;;;;21.16;17.59;101008.97;1726270;83;21189;-70
2022/05/05 11:05:40;;;;;;;4.47;1.55;;;;;;;21.24;17.95;101005.77;1726010;83;21082;-71
2022/05/05 11:08:19;;;;;;;2.62;1.65;;;;;;;21.43;17.26;101009.41;1726130;81;22060;-72
2022/05/05 11:13:40;;;;;;;3.05;1.67;;;;;;;20.73;17.15;101011.82;1653701;86;21178;-72
2022/05/05 11:22:24;;;;;;;7.47;1.80;;;;;;;19.73;17.37;100999.87;1713424;82;21510;-73
2022/05/05 11:24:52;;;;;;;4.50;1.42;;;;;;;19.64;17.53;101007.08;1713879;82;21085;-72
2022/05/05 11:27:22;;;;;;;1.67;1.30;;;;;;;19.60;17.32;101006.87;1713572;82;21049;-73
2022/05/05 11:29:57;;;;;;;3.77;1.57;;;;;;;19.73;17.38;101006.55;1713175;82;21198;-73
2022/05/05 11:32:32;;;;;;;2.00;1.50;;;;;;;19.93;17.93;101005.81;1713018;82;21099;-72
2022/05/05 11:34:59;;;;;;;2.80;1.50;;;;;;;19.93;17.71;101000.47;1713143;83;21603;-73
2022/05/05 11:37:27;;;;;;;4.62;1.67;;;;;;;19.71;17.79;100997.77;1713097;83;21031;-71
2022/05/05 11:39:53;;;;;;;2.02;1.32;;;;;;;19.64;17.86;100996.39;1713411;83;21111;-74
2022/05/05 11:42:20;;;;;;;3.50;1.80;;;;;;;19.55;17.87;100994.28;1713045;83;21859;-72
2022/05/05 11:44:48;;;;;;;3.62;1.85;;;;;;;19.43;18.95;100991.40;1712996;82;21095;-73
2022/05/05 11:47:20;;;;;;;3.15;1.67;;;;;;;19.53;17.76;100990.84;1713198;82;21063;-74
2022/05/05 11:49:48;;;;;;;4.65;1.40;;;;;;;19.45;17.25;100983.30;1713372;83;21044;-71
2022/05/05 11:52:25;;;;;;;2.72;1.42;;;;;;;19.53;18.23;100984.16;1713082;82;21047;-74
2022/05/05 11:54:55;;;;;;;3.62;1.70;;;;;;;19.79;17.30;100995.98;1713423;82;21779;-72
2022/05/05 11:57:40;;;;;;;3.42;1.77;;;;;;;19.71;17.40;100989.75;1713213;82;21039;-72
2022/05/05 12:02:56;;;;;;;5.30;1.42;;;;;;;19.15;17.22;100982.00;1713406;82;21040;-71
2022/05/05 12:05:24;;;;;;;13.28;2.25;;;;;;;19.16;17.62;100979.70;1713408;82;20992;-71
2022/05/05 12:07:53;;;;;;;5.58;1.40;;;;;;;19.15;17.84;100975.33;1713368;82;21242;-72
2022/05/05 12:10:25;;;;;;;5.17;1.60;;;;;;;19.24;17.70;100974.78;1713344;82;21048;-73
2022/05/05 12:12:50;;;;;;;6.50;1.65;;;;;;;19.40;17.77;100970.23;1712375;82;21090;-73
2022/05/05 12:15:18;;;;;;;5.30;1.80;;;;;;;19.16;17.70;100965.02;1713220;82;21555;-74